Time;durP1;ratioP1;P1;durP2;ratioP2;P2;SDS_P1;SDS_P2;PMS_P1;PMS_P2;Temp;Humidity;BMP_temperature;BMP_pressure;BME280_temperature;BME280_humidity;BME280_pressure;Samples;Min_cycle;Max_cycle;Signal;HPM_P1;HPM_P2
2022/01/25 00:10:39;;;;;;;8.55;1.45;;;23.30;99.90;;;;;;5024740;28;20067;-66
2022/01/25 00:26:35;;;;;;;5.40;1.15;;;22.90;99.90;;;;;;5031072;28;20425;-65
2022/01/25 00:29:08;;;;;;;6.93;1.10;;;22.90;99.90;;;;;;5030488;28;20017;-66
2022/01/25 00:31:37;;;;;;;6.72;1.00;;;22.90;99.90;;;;;;5032440;28;20029;-66
2022/01/25 00:34:06;;;;;;;7.18;1.27;;;22.90;99.90;;;;;;5029682;28;20029;-66
2022/01/25 00:36:33;;;;;;;8.00;1.58;;;22.90;99.90;;;;;;5012891;28;20029;-66
2022/01/25 00:39:01;;;;;;;9.95;2.30;;;23.00;99.90;;;;;;5013279;28;20598;-66
2022/01/25 00:41:29;;;;;;;5.88;0.77;;;23.00;99.90;;;;;;5019838;28;20044;-66
2022/01/25 00:43:59;;;;;;;7.93;1.00;;;23.00;99.90;;;;;;5022170;28;20038;-66
2022/01/25 00:46:26;;;;;;;9.55;1.55;;;23.00;99.90;;;;;;5016226;28;20079;-66
2022/01/25 00:48:55;;;;;;;8.05;1.60;;;23.10;99.90;;;;;;5029998;28;20129;-66
2022/01/25 00:54:15;;;;;;;11.75;1.40;;;23.10;99.90;;;;;;5012877;28;20578;-66
2022/01/25 00:56:48;;;;;;;9.10;1.30;;;23.20;99.90;;;;;;5032099;28;20030;-66
2022/01/25 00:59:21;;;;;;;9.05;1.75;;;23.20;99.90;;;;;;5030244;28;20434;-66
2022/01/25 01:01:52;;;;;;;10.15;1.88;;;23.20;99.90;;;;;;5032580;28;20041;-66
2022/01/25 01:04:20;;;;;;;4.15;1.30;;;23.10;99.90;;;;;;5034377;28;20033;-66
2022/01/25 01:06:48;;;;;;;12.13;1.55;;;23.10;99.90;;;;;;5035994;28;20524;-67
2022/01/25 01:09:18;;;;;;;8.48;1.45;;;23.00;99.90;;;;;;5034573;28;20021;-66
2022/01/25 01:11:53;;;;;;;5.28;1.00;;;22.90;99.90;;;;;;5035904;28;20033;-66
2022/01/25 01:14:49;;;;;;;8.95;1.60;;;22.90;99.90;;;;;;5032127;28;20108;-66
2022/01/25 01:29:04;;;;;;;10.63;1.13;;;23.10;99.90;;;;;;5029911;28;20456;-66
2022/01/25 01:39:27;;;;;;;8.73;1.58;;;23.40;99.90;;;;;;5015503;28;20037;-66
2022/01/25 01:42:48;;;;;;;11.55;1.35;;;23.80;99.90;;;;;;5016131;28;20041;-66
2022/01/25 01:47:49;;;;;;;6.07;1.58;;;24.70;99.90;;;;;;5040624;28;20037;-66
2022/01/25 01:50:28;;;;;;;10.43;1.40;;;25.00;99.90;;;;;;5033517;28;20029;-66
2022/01/25 01:52:55;;;;;;;11.43;2.88;;;24.90;99.90;;;;;;5034972;28;20470;-66
2022/01/25 01:55:25;;;;;;;5.38;1.00;;;24.90;99.90;;;;;;5033262;28;20041;-67
2022/01/25 01:57:53;;;;;;;6.85;1.33;;;24.60;99.90;;;;;;5034742;28;20538;-66
2022/01/25 02:00:32;;;;;;;5.60;1.45;;;24.60;99.90;;;;;;5027243;28;20036;-66
2022/01/25 02:03:00;;;;;;;8.40;1.08;;;24.80;99.90;;;;;;5017400;28;20431;-67
2022/01/25 02:05:29;;;;;;;7.53;1.60;;;25.10;99.90;;;;;;5033401;28;20032;-66
2022/01/25 02:07:56;;;;;;;3.58;0.95;;;25.60;99.90;;;;;;5034989;28;20029;-66
2022/01/25 02:10:24;;;;;;;7.85;1.20;;;25.80;99.90;;;;;;5033359;28;20466;-67
2022/01/25 02:12:52;;;;;;;11.05;1.92;;;25.90;99.90;;;;;;5034255;28;20033;-67
2022/01/25 02:15:21;;;;;;;3.92;0.80;;;25.90;99.90;;;;;;5032797;28;20401;-67
2022/01/25 02:23:29;;;;;;;9.13;1.38;;;25.50;99.90;;;;;;5034354;28;20117;-66
2022/01/25 02:26:00;;;;;;;7.22;1.75;;;25.80;99.90;;;;;;5032788;28;20032;-67
2022/01/25 02:28:31;;;;;;;7.95;1.20;;;25.60;99.90;;;;;;5026495;28;20018;-66
2022/01/25 02:30:59;;;;;;;8.68;1.85;;;25.90;99.90;;;;;;5029595;28;20029;-67
2022/01/25 02:33:27;;;;;;;5.28;1.17;;;25.80;99.90;;;;;;5029277;28;20057;-66
2022/01/25 02:35:56;;;;;;;6.28;1.20;;;25.60;99.90;;;;;;5020776;28;20038;-66
2022/01/25 02:38:26;;;;;;;7.82;1.67;;;25.60;99.90;;;;;;5014185;28;20557;-67
2022/01/25 02:40:54;;;;;;;5.72;1.13;;;25.90;99.90;;;;;;5030154;28;20091;-67
2022/01/25 02:43:22;;;;;;;4.15;0.88;;;25.80;99.90;;;;;;5032399;28;20029;-66
2022/01/25 02:46:17;;;;;;;7.32;1.27;;;25.60;99.90;;;;;;5032471;28;20033;-66
2022/01/25 02:48:59;;;;;;;5.88;1.33;;;25.70;99.90;;;;;;5033354;28;20053;-67
2022/01/25 02:51:35;;;;;;;5.53;1.20;;;26.10;99.90;;;;;;5013564;28;20033;-67
2022/01/25 02:54:04;;;;;;;7.00;0.82;;;26.00;99.90;;;;;;5015262;28;20049;-67
2022/01/25 02:56:31;;;;;;;6.10;1.40;;;25.90;99.90;;;;;;5033657;28;20017;-67
2022/01/25 02:58:59;;;;;;;4.53;1.13;;;25.90;99.90;;;;;;5030928;28;20040;-67
2022/01/25 03:01:28;;;;;;;9.50;1.63;;;26.20;99.90;;;;;;5033083;28;20087;-67
2022/01/25 03:03:56;;;;;;;6.00;1.38;;;26.20;99.90;;;;;;5032336;28;20049;-67
2022/01/25 03:06:24;;;;;;;8.55;1.40;;;26.10;99.90;;;;;;5013657;28;20025;-67
2022/01/25 03:08:53;;;;;;;9.25;1.33;;;26.10;99.90;;;;;;5013665;28;20030;-67
2022/01/25 03:11:22;;;;;;;10.38;1.25;;;26.00;99.90;;;;;;5032875;28;20068;-67
2022/01/25 03:13:56;;;;;;;8.48;1.30;;;26.00;99.90;;;;;;5032107;28;20071;-67
2022/01/25 03:19:04;;;;;;;6.72;0.90;;;25.90;99.90;;;;;;5014395;28;20084;-67
2022/01/25 03:21:37;;;;;;;10.15;1.63;;;25.80;99.90;;;;;;5033295;28;20042;-66
2022/01/25 03:24:06;;;;;;;7.70;1.30;;;25.80;99.90;;;;;;5026998;28;20021;-67
2022/01/25 03:26:35;;;;;;;8.90;1.63;;;25.60;99.90;;;;;;5032730;28;20044;-67
2022/01/25 03:29:04;;;;;;;9.55;1.00;;;25.20;99.90;;;;;;5031782;28;20470;-66
2022/01/25 03:31:31;;;;;;;9.30;1.15;;;25.00;99.90;;;;;;5027787;28;20497;-67
2022/01/25 03:33:59;;;;;;;6.35;1.20;;;25.10;99.90;;;;;;5020850;28;20025;-66
2022/01/25 03:36:27;;;;;;;8.52;1.65;;;25.10;99.90;;;;;;5023096;28;20481;-67
2022/01/25 03:38:54;;;;;;;8.52;1.10;;;25.30;99.90;;;;;;5014734;28;20021;-67
2022/01/25 03:41:26;;;;;;;7.40;1.38;;;24.90;99.90;;;;;;5017450;28;20025;-67
2022/01/25 03:43:56;;;;;;;5.85;1.60;;;25.10;99.90;;;;;;5022525;28;20379;-67
2022/01/25 03:46:29;;;;;;;10.40;1.33;;;25.10;99.90;;;;;;5013049;28;20022;-67
2022/01/25 03:51:41;;;;;;;;;;;24.90;99.90;;;;;;5033541;28;19963;-67
2022/01/25 03:54:08;;;;;;;7.13;1.48;;;24.90;99.90;;;;;;5031237;28;19917;-67
2022/01/25 03:56:37;;;;;;;8.38;1.80;;;24.80;99.90;;;;;;5032740;28;20076;-67
2022/01/25 03:59:06;;;;;;;7.22;1.20;;;24.80;99.90;;;;;;5030835;28;20425;-67
2022/01/25 04:01:34;;;;;;;8.30;1.63;;;24.90;99.90;;;;;;5026096;28;20065;-67
2022/01/25 04:04:07;;;;;;;7.63;1.55;;;24.70;99.90;;;;;;5013391;28;20026;-67
2022/01/25 04:06:36;;;;;;;4.45;1.00;;;24.80;99.90;;;;;;5021623;28;20022;-66
2022/01/25 04:09:12;;;;;;;5.65;1.20;;;24.70;99.90;;;;;;5013727;28;20037;-67
2022/01/25 04:11:39;;;;;;;9.45;1.05;;;24.80;99.90;;;;;;5032632;28;20045;-67
2022/01/25 04:14:07;;;;;;;9.75;1.35;;;24.80;99.90;;;;;;5030700;28;20034;-67
2022/01/25 04:16:49;;;;;;;5.60;0.80;;;24.60;99.90;;;;;;5024721;28;20024;-67
2022/01/25 04:19:35;;;;;;;9.95;1.35;;;24.80;99.90;;;;;;5014714;28;20036;-67
2022/01/25 04:25:14;;;;;;;7.05;1.20;;;24.60;99.90;;;;;;5019350;28;20025;-67
2022/01/25 04:27:41;;;;;;;10.38;1.70;;;24.60;99.90;;;;;;5020003;28;20026;-67
2022/01/25 04:30:09;;;;;;;4.68;0.88;;;24.40;99.90;;;;;;5023949;28;20040;-67
2022/01/25 04:32:47;;;;;;;7.75;1.00;;;24.40;99.90;;;;;;5032515;28;20025;-67
2022/01/25 04:35:39;;;;;;;5.32;1.23;;;24.40;99.90;;;;;;5031046;28;20156;-67
2022/01/25 04:49:21;;;;;;;7.18;1.40;;;24.70;99.90;;;;;;5034473;28;20040;-67
2022/01/25 04:52:00;;;;;;;4.20;1.02;;;24.70;99.90;;;;;;5036359;28;20031;-67
2022/01/25 04:59:47;;;;;;;6.18;1.00;;;24.50;99.90;;;;;;5034790;28;20033;-66
2022/01/25 05:05:04;;;;;;;6.95;1.15;;;24.50;99.90;;;;;;5017602;28;20041;-65
2022/01/25 05:07:58;;;;;;;4.90;1.00;;;24.50;99.90;;;;;;5016223;28;20084;-66
2022/01/25 05:10:18;;;;;;;7.90;1.85;;;24.40;99.90;;;;;;5022694;28;20500;-66
2022/01/25 05:12:52;;;;;;;9.95;1.58;;;24.40;99.90;;;;;;5031308;28;20040;-66
2022/01/25 05:15:48;;;;;;;6.25;1.20;;;24.50;99.90;;;;;;5034494;28;20029;-66
2022/01/25 05:18:22;;;;;;;8.20;1.48;;;24.50;99.90;;;;;;5017856;28;20038;-65
2022/01/25 05:23:35;;;;;;;5.25;1.20;;;24.50;99.90;;;;;;5015174;28;20496;-66
2022/01/25 05:26:02;;;;;;;5.18;0.70;;;24.70;99.90;;;;;;5033011;28;20455;-67
2022/01/25 05:28:30;;;;;;;6.28;0.95;;;24.60;99.90;;;;;;5033908;28;20021;-67
2022/01/25 05:30:57;;;;;;;7.57;1.20;;;24.50;99.90;;;;;;5032989;28;20022;-67
2022/01/25 05:33:24;;;;;;;10.43;1.42;;;24.60;99.90;;;;;;5035395;28;20029;-67
2022/01/25 05:35:52;;;;;;;6.07;1.25;;;24.40;99.90;;;;;;5034061;28;20032;-67
2022/01/25 05:38:19;;;;;;;4.68;1.33;;;24.60;99.90;;;;;;5033659;28;20052;-67
2022/01/25 05:40:55;;;;;;;6.45;0.93;;;24.70;99.90;;;;;;5029285;28;20508;-67
2022/01/25 05:46:14;;;;;;;7.47;1.25;;;24.50;99.90;;;;;;5030928;28;20113;-67
2022/01/25 05:48:41;;;;;;;7.80;1.27;;;24.50;99.90;;;;;;5020144;28;20120;-67
2022/01/25 05:51:10;;;;;;;6.65;1.23;;;24.50;99.90;;;;;;5033612;28;20029;-67
2022/01/25 05:53:37;;;;;;;3.80;1.00;;;24.30;99.90;;;;;;5035293;28;20518;-67
2022/01/25 05:56:05;;;;;;;5.35;0.95;;;24.40;99.90;;;;;;5032531;28;20037;-66
2022/01/25 05:58:32;;;;;;;7.57;1.25;;;24.30;99.90;;;;;;5035227;28;20021;-67
2022/01/25 06:01:00;;;;;;;9.18;1.25;;;24.40;99.90;;;;;;5033350;28;20040;-67
2022/01/25 06:03:27;;;;;;;8.20;0.95;;;24.50;99.90;;;;;;5024883;28;20052;-67
2022/01/25 06:05:54;;;;;;;6.82;1.17;;;24.60;99.90;;;;;;5021340;28;20040;-67
2022/01/25 06:08:22;;;;;;;10.13;1.33;;;24.60;99.90;;;;;;5032131;28;20040;-67
2022/01/25 06:10:49;;;;;;;5.05;0.80;;;24.30;99.90;;;;;;5018025;28;20033;-67
2022/01/25 06:13:19;;;;;;;7.50;1.13;;;24.00;99.90;;;;;;5013533;28;20551;-67
2022/01/25 06:15:47;;;;;;;8.75;1.48;;;24.00;99.90;;;;;;5029974;28;20029;-67
2022/01/25 06:18:14;;;;;;;6.32;1.38;;;24.00;99.90;;;;;;5034536;28;20022;-67
2022/01/25 06:20:41;;;;;;;7.80;0.90;;;24.10;99.90;;;;;;5033172;28;20036;-67
2022/01/25 06:23:08;;;;;;;7.38;1.30;;;24.20;99.90;;;;;;5033485;28;20028;-67
2022/01/25 06:25:36;;;;;;;5.25;1.00;;;24.40;99.90;;;;;;5033103;28;20029;-67
2022/01/25 06:28:03;;;;;;;5.55;1.17;;;24.50;99.90;;;;;;5034409;28;20061;-67
2022/01/25 06:30:31;;;;;;;4.43;1.00;;;24.40;99.90;;;;;;5031502;28;20033;-67
2022/01/25 06:32:59;;;;;;;3.28;0.82;;;24.10;99.90;;;;;;5034222;28;20504;-67
2022/01/25 06:35:31;;;;;;;6.10;1.13;;;24.20;99.90;;;;;;5032835;28;20473;-67
2022/01/25 06:37:59;;;;;;;6.65;0.90;;;24.20;99.90;;;;;;5034220;28;20056;-67
2022/01/25 06:40:27;;;;;;;8.32;1.15;;;24.40;99.90;;;;;;5033578;28;20033;-67
2022/01/25 06:42:54;;;;;;;5.10;0.70;;;24.40;99.90;;;;;;5030342;28;20029;-67
2022/01/25 06:45:24;;;;;;;8.10;1.20;;;24.20;99.90;;;;;;5032602;28;20105;-67
2022/01/25 06:47:52;;;;;;;5.60;0.90;;;24.00;99.90;;;;;;5034152;28;20045;-67
2022/01/25 06:50:23;;;;;;;5.55;0.73;;;23.80;99.90;;;;;;5032880;28;20405;-67
2022/01/25 06:52:51;;;;;;;3.40;1.20;;;23.70;99.90;;;;;;5031899;28;20017;-67
2022/01/25 06:55:20;;;;;;;8.18;1.45;;;23.60;99.90;;;;;;5026450;28;20117;-68
2022/01/25 06:57:47;;;;;;;5.78;1.00;;;23.80;99.90;;;;;;5034081;28;20101;-67
2022/01/25 07:00:19;;;;;;;5.10;1.13;;;23.70;99.90;;;;;;5024551;28;20038;-67
2022/01/25 07:02:46;;;;;;;8.13;0.90;;;23.80;99.90;;;;;;5014821;28;20037;-67
2022/01/25 07:05:15;;;;;;;7.00;0.70;;;23.90;99.90;;;;;;5024971;28;20464;-67
2022/01/25 07:07:44;;;;;;;8.00;0.80;;;23.90;99.90;;;;;;5033467;28;20025;-67
2022/01/25 07:10:11;;;;;;;7.45;1.02;;;24.20;99.90;;;;;;5032195;28;20021;-67
2022/01/25 07:12:39;;;;;;;4.85;0.93;;;24.70;99.90;;;;;;5033324;28;20017;-67
2022/01/25 07:15:07;;;;;;;6.15;0.88;;;24.30;99.90;;;;;;5029390;28;20735;-67
2022/01/25 07:17:34;;;;;;;6.50;0.80;;;23.90;99.90;;;;;;5031001;28;20032;-67
2022/01/25 07:20:02;;;;;;;6.10;1.30;;;23.70;99.90;;;;;;5016277;28;20075;-67
2022/01/25 07:22:29;;;;;;;4.88;0.90;;;23.50;99.90;;;;;;5013316;28;20042;-67
2022/01/25 07:24:56;;;;;;;11.38;1.95;;;23.40;99.90;;;;;;5021840;28;20026;-67
2022/01/25 07:27:24;;;;;;;7.85;0.90;;;23.50;99.90;;;;;;5033293;28;20021;-67
2022/01/25 07:29:51;;;;;;;7.95;1.35;;;23.60;99.90;;;;;;5023374;28;20038;-67
2022/01/25 07:32:18;;;;;;;9.95;1.13;;;23.70;99.90;;;;;;5028480;28;20140;-67
2022/01/25 07:34:45;;;;;;;6.05;1.77;;;23.90;99.90;;;;;;5031091;28;20390;-67
2022/01/25 07:37:13;;;;;;;4.07;1.08;;;24.00;99.90;;;;;;5028642;28;20451;-67
2022/01/25 07:39:42;;;;;;;8.32;0.85;;;23.80;99.90;;;;;;5030311;28;20025;-67
2022/01/25 07:42:11;;;;;;;5.57;0.88;;;23.70;99.90;;;;;;5024340;28;20026;-67
2022/01/25 07:44:39;;;;;;;7.85;1.17;;;23.50;99.90;;;;;;5024128;28;20098;-67
2022/01/25 07:47:07;;;;;;;6.10;0.95;;;23.30;99.90;;;;;;5031607;28;20050;-67
2022/01/25 07:49:35;;;;;;;8.75;1.05;;;23.30;99.90;;;;;;5020993;28;20030;-67
2022/01/25 07:52:04;;;;;;;4.25;1.08;;;23.20;99.90;;;;;;5012859;28;20037;-67
2022/01/25 07:54:31;;;;;;;5.10;0.90;;;23.10;99.90;;;;;;5026577;28;20061;-67
2022/01/25 07:56:59;;;;;;;5.95;1.08;;;23.00;99.90;;;;;;5032104;28;20397;-67
2022/01/25 07:59:26;;;;;;;5.43;0.73;;;23.00;99.90;;;;;;5023828;28;20041;-67
2022/01/25 08:01:54;;;;;;;10.77;1.42;;;22.90;99.90;;;;;;5027870;28;20466;-67
2022/01/25 08:04:21;;;;;;;7.20;1.30;;;22.80;99.90;;;;;;5025688;28;20033;-67
2022/01/25 08:06:48;;;;;;;6.47;0.90;;;22.70;99.90;;;;;;5020714;28;20105;-67
2022/01/25 08:09:15;;;;;;;3.45;0.77;;;22.80;99.90;;;;;;5031405;28;20024;-67
2022/01/25 08:11:43;;;;;;;3.42;1.17;;;22.80;99.90;;;;;;5031649;28;20151;-67
2022/01/25 08:14:16;;;;;;;6.50;1.17;;;22.70;99.90;;;;;;5029181;28;20049;-67
2022/01/25 08:16:47;;;;;;;5.63;0.98;;;22.70;99.90;;;;;;5032502;28;20065;-67
2022/01/25 08:19:15;;;;;;;4.53;0.80;;;22.70;99.90;;;;;;5030786;28;20117;-67
2022/01/25 08:21:43;;;;;;;7.35;1.30;;;22.70;99.90;;;;;;5032191;28;20131;-67
2022/01/25 08:24:11;;;;;;;8.05;1.27;;;22.70;99.90;;;;;;5029823;28;20030;-67
2022/01/25 08:26:39;;;;;;;5.07;1.10;;;22.80;99.90;;;;;;5032405;28;20036;-67
2022/01/25 08:29:07;;;;;;;7.65;1.00;;;22.70;99.90;;;;;;5029748;28;20021;-67
2022/01/25 08:31:36;;;;;;;9.95;1.85;;;22.80;99.90;;;;;;5020344;28;20022;-67
2022/01/25 08:34:03;;;;;;;6.70;1.02;;;22.80;99.90;;;;;;5013716;28;20030;-67
2022/01/25 08:36:31;;;;;;;6.15;1.17;;;22.80;99.90;;;;;;5032458;28;20029;-67
2022/01/25 08:38:58;;;;;;;9.52;0.93;;;22.80;99.90;;;;;;5029292;28;20150;-67
2022/01/25 08:41:26;;;;;;;3.53;0.68;;;22.70;99.90;;;;;;5026839;28;20034;-67
2022/01/25 08:43:54;;;;;;;5.10;1.45;;;22.70;99.90;;;;;;5025259;28;20025;-67
2022/01/25 08:46:21;;;;;;;6.45;1.38;;;22.70;99.90;;;;;;5022198;28;20470;-67
2022/01/25 08:48:49;;;;;;;4.93;0.73;;;22.70;99.90;;;;;;5017930;28;20045;-67
2022/01/25 08:51:17;;;;;;;6.43;1.23;;;22.60;99.90;;;;;;5014729;28;20410;-67
2022/01/25 08:53:45;;;;;;;7.63;1.15;;;22.60;99.90;;;;;;5012194;28;20386;-67
2022/01/25 08:56:12;;;;;;;6.82;0.90;;;22.70;99.90;;;;;;5031037;28;20061;-67
2022/01/25 08:58:40;;;;;;;4.30;1.25;;;22.60;99.90;;;;;;5031844;28;20024;-67
2022/01/25 09:01:08;;;;;;;3.83;1.08;;;22.60;99.90;;;;;;5030333;28;20030;-67
2022/01/25 09:03:36;;;;;;;2.63;0.50;;;22.50;99.90;;;;;;5031978;28;20041;-67
2022/01/25 09:06:04;;;;;;;7.03;0.80;;;22.50;99.90;;;;;;5030291;28;20075;-67
2022/01/25 09:08:32;;;;;;;8.18;1.15;;;22.50;99.90;;;;;;5031686;28;20033;-67
2022/01/25 09:11:03;;;;;;;14.90;1.20;;;22.50;99.90;;;;;;5029105;28;20387;-67
2022/01/25 09:13:31;;;;;;;6.38;0.77;;;22.50;99.90;;;;;;5020605;28;20521;-67
2022/01/25 09:15:59;;;;;;;14.90;1.58;;;22.50;99.90;;;;;;5029100;28;20035;-67
2022/01/25 09:18:28;;;;;;;6.32;1.40;;;22.50;99.90;;;;;;5029760;28;20039;-67
2022/01/25 09:20:56;;;;;;;4.40;0.77;;;22.50;99.90;;;;;;5029220;28;20041;-67
2022/01/25 09:23:24;;;;;;;10.77;1.42;;;22.40;99.90;;;;;;5032418;28;20021;-67
2022/01/25 09:25:52;;;;;;;5.85;0.80;;;22.40;99.90;;;;;;5020480;28;20026;-67
2022/01/25 09:28:20;;;;;;;7.43;1.10;;;22.40;99.90;;;;;;5015643;28;20049;-67
2022/01/25 09:30:47;;;;;;;7.28;0.98;;;22.40;99.90;;;;;;5031170;28;20033;-67
2022/01/25 09:33:15;;;;;;;6.20;0.98;;;22.40;99.90;;;;;;5021710;28;20034;-67
2022/01/25 09:35:43;;;;;;;5.88;1.02;;;22.40;99.90;;;;;;5033976;28;20021;-67
2022/01/25 09:38:10;;;;;;;7.60;0.82;;;22.40;99.90;;;;;;5033998;28;20040;-67
2022/01/25 09:40:38;;;;;;;4.88;0.95;;;22.30;99.90;;;;;;5020137;28;20049;-67
2022/01/25 09:43:06;;;;;;;7.38;1.17;;;22.30;99.90;;;;;;5022465;28;20029;-67
2022/01/25 09:45:35;;;;;;;4.78;0.70;;;22.30;99.90;;;;;;5034463;28;20033;-67
2022/01/25 09:48:04;;;;;;;4.85;1.02;;;22.30;99.90;;;;;;5034592;28;20060;-67
2022/01/25 09:50:32;;;;;;;12.07;2.17;;;22.30;99.90;;;;;;5033284;28;20040;-67
2022/01/25 09:53:00;;;;;;;4.97;1.60;;;22.20;99.90;;;;;;5035038;28;20028;-67
2022/01/25 09:55:32;;;;;;;5.43;0.82;;;22.20;99.90;;;;;;5033484;28;20137;-67
2022/01/25 09:58:02;;;;;;;6.82;1.35;;;22.20;99.90;;;;;;5033788;28;20022;-67
2022/01/25 10:00:32;;;;;;;6.15;1.55;;;22.20;99.90;;;;;;5032916;28;20072;-67
2022/01/25 10:05:37;;;;;;;6.93;0.95;;;22.20;99.90;;;;;;5033409;28;20263;-67
2022/01/25 10:08:10;;;;;;;3.50;0.88;;;22.20;99.90;;;;;;5034391;28;20033;-67
2022/01/25 10:11:01;;;;;;;6.30;0.75;;;22.20;99.90;;;;;;5032805;28;20026;-67
2022/01/25 10:13:34;;;;;;;3.15;0.65;;;22.20;99.90;;;;;;5034187;28;20109;-67
2022/01/25 10:16:08;;;;;;;5.05;1.55;;;22.20;99.90;;;;;;5032111;28;20052;-67
2022/01/25 10:18:38;;;;;;;7.80;1.15;;;22.20;99.90;;;;;;5034471;28;20021;-67
2022/01/25 10:21:11;;;;;;;8.05;1.60;;;22.20;99.90;;;;;;5033151;28;20043;-67
2022/01/25 10:23:40;;;;;;;6.20;0.90;;;22.20;99.90;;;;;;5034388;28;20083;-67
2022/01/25 10:26:08;;;;;;;6.20;0.80;;;22.20;99.90;;;;;;5032557;28;20049;-67
2022/01/25 10:28:36;;;;;;;11.80;2.17;;;22.20;99.90;;;;;;5032902;28;20033;-67
2022/01/25 10:31:06;;;;;;;7.25;1.20;;;22.20;99.90;;;;;;5031775;28;20186;-67
2022/01/25 10:33:40;;;;;;;8.55;1.05;;;22.20;99.90;;;;;;5032854;28;20099;-67
2022/01/25 10:36:14;;;;;;;;;;;22.20;99.90;;;;;;5029030;28;20076;-67
2022/01/25 10:38:46;;;;;;;6.80;1.05;;;22.10;99.90;;;;;;5030202;28;20463;-67
2022/01/25 10:41:17;;;;;;;4.43;1.13;;;22.10;99.90;;;;;;5030434;28;20041;-67
2022/01/25 10:43:46;;;;;;;7.03;0.95;;;22.10;99.90;;;;;;5014303;28;20022;-67
2022/01/25 10:46:24;;;;;;;6.30;1.05;;;22.10;99.90;;;;;;5033465;28;20032;-67
2022/01/25 10:49:00;;;;;;;7.43;1.20;;;22.00;99.90;;;;;;5033024;28;20077;-67
2022/01/25 10:51:51;;;;;;;8.05;1.08;;;22.00;99.90;;;;;;5024489;28;20020;-67
2022/01/25 10:54:22;;;;;;;4.65;0.90;;;22.00;99.90;;;;;;5031054;28;20025;-67
2022/01/25 10:56:54;;;;;;;10.30;0.80;;;21.90;99.90;;;;;;5033417;28;20022;-67
2022/01/25 10:59:25;;;;;;;8.52;1.23;;;21.90;99.90;;;;;;5032188;28;20378;-67
2022/01/25 11:02:01;;;;;;;9.38;1.50;;;22.00;99.90;;;;;;5033749;28;20033;-67
2022/01/25 11:04:40;;;;;;;5.13;1.30;;;21.90;99.90;;;;;;5029658;28;20112;-67
2022/01/25 11:07:11;;;;;;;5.03;1.25;;;21.90;99.90;;;;;;5033614;28;20070;-67
2022/01/25 11:09:46;;;;;;;5.55;0.80;;;21.90;99.90;;;;;;5031487;28;20113;-67
2022/01/25 11:12:18;;;;;;;4.93;1.35;;;22.00;99.90;;;;;;5021373;28;20033;-66
2022/01/25 11:14:57;;;;;;;5.57;0.75;;;22.00;99.90;;;;;;5032020;28;20021;-67
2022/01/25 11:17:27;;;;;;;6.50;1.08;;;21.90;99.90;;;;;;5033270;28;20022;-67
2022/01/25 11:19:56;;;;;;;7.18;1.33;;;21.90;99.90;;;;;;5031897;28;20027;-67
2022/01/25 11:22:24;;;;;;;4.65;0.88;;;21.90;99.90;;;;;;5019639;28;20030;-67
2022/01/25 11:25:07;;;;;;;5.15;1.10;;;21.90;99.90;;;;;;5021088;28;20053;-65
2022/01/25 11:27:35;;;;;;;4.95;1.30;;;21.90;99.90;;;;;;5033061;28;20498;-65
2022/01/25 11:30:19;;;;;;;6.47;1.33;;;21.80;99.90;;;;;;5028591;28;20026;-65
2022/01/25 11:32:53;;;;;;;6.30;0.95;;;21.90;99.90;;;;;;5034263;28;20028;-65
2022/01/25 11:35:25;;;;;;;5.45;0.68;;;21.90;99.90;;;;;;5021106;28;20433;-65
2022/01/25 11:37:53;;;;;;;7.80;1.38;;;21.90;99.90;;;;;;5013338;28;20100;-66
2022/01/25 11:40:31;;;;;;;5.30;0.80;;;21.90;99.90;;;;;;5013312;28;20049;-66
2022/01/25 11:43:05;;;;;;;6.13;0.80;;;21.90;99.90;;;;;;5029756;28;20025;-66
2022/01/25 11:45:35;;;;;;;5.38;1.00;;;21.80;99.90;;;;;;5021085;28;20124;-66
2022/01/25 11:48:03;;;;;;;4.78;1.05;;;21.80;99.90;;;;;;5032066;28;20490;-66
2022/01/25 11:50:36;;;;;;;3.78;1.23;;;21.90;99.90;;;;;;5028562;28;20029;-66
2022/01/25 11:53:09;;;;;;;6.88;1.63;;;21.90;99.90;;;;;;5032693;28;20390;-66
2022/01/25 11:55:41;;;;;;;6.38;1.52;;;21.90;99.90;;;;;;5031382;28;20494;-66
2022/01/25 11:58:24;;;;;;;6.40;1.27;;;21.90;99.90;;;;;;5033021;28;20478;-66
2022/01/25 12:00:55;;;;;;;7.22;1.25;;;21.90;99.90;;;;;;5030170;28;20091;-66
2022/01/25 12:03:25;;;;;;;7.80;1.23;;;22.00;99.90;;;;;;5032482;28;20143;-66
2022/01/25 12:06:10;;;;;;;3.15;0.60;;;21.90;99.90;;;;;;5026497;28;20021;-66
2022/01/25 12:08:50;;;;;;;;;;;21.90;99.90;;;;;;5033131;28;20172;-66
2022/01/25 12:11:49;;;;;;;6.53;0.93;;;21.90;99.90;;;;;;5027435;28;19909;-66
2022/01/25 12:14:51;;;;;;;9.38;2.17;;;21.90;99.90;;;;;;5031110;28;20022;-66
2022/01/25 12:17:24;;;;;;;10.23;1.08;;;21.90;99.90;;;;;;5030767;28;20498;-66
2022/01/25 12:19:57;;;;;;;6.75;1.40;;;21.90;99.90;;;;;;5012967;28;20061;-66
2022/01/25 12:22:39;;;;;;;7.05;1.05;;;21.90;99.90;;;;;;5012459;28;20041;-66
2022/01/25 12:25:43;;;;;;;4.95;1.00;;;21.90;99.90;;;;;;5019240;28;20040;-66
2022/01/25 12:28:31;;;;;;;7.80;1.52;;;21.80;99.90;;;;;;5012953;28;20463;-66
2022/01/25 12:31:02;;;;;;;5.55;0.80;;;21.80;99.90;;;;;;5021394;28;20044;-67
2022/01/25 12:33:32;;;;;;;4.88;1.13;;;21.80;99.90;;;;;;5017347;28;20079;-68
2022/01/25 12:36:08;;;;;;;8.02;1.10;;;21.80;99.90;;;;;;5030052;28;20367;-67
2022/01/25 12:38:49;;;;;;;8.80;1.52;;;21.80;99.90;;;;;;5019189;28;20057;-69
2022/01/25 12:41:24;;;;;;;6.75;0.90;;;21.70;99.90;;;;;;5028839;28;20030;-66
2022/01/25 12:43:57;;;;;;;8.00;1.55;;;21.80;99.90;;;;;;5012815;28;20367;-69
2022/01/25 12:46:28;;;;;;;5.70;0.82;;;21.80;99.90;;;;;;5010929;28;20029;-67
2022/01/25 12:49:10;;;;;;;8.57;1.83;;;21.80;99.90;;;;;;5012341;28;20092;-66
2022/01/25 12:51:41;;;;;;;8.05;0.90;;;21.70;99.90;;;;;;5012158;28;20569;-66
2022/01/25 12:54:11;;;;;;;6.03;1.05;;;21.70;99.90;;;;;;5014144;28;20140;-66
2022/01/25 12:56:50;;;;;;;3.22;0.70;;;21.70;99.90;;;;;;5031782;28;20024;-66
2022/01/25 12:59:27;;;;;;;5.57;1.13;;;21.70;99.90;;;;;;5033442;28;20069;-66
2022/01/25 13:01:57;;;;;;;4.95;1.10;;;21.70;99.90;;;;;;5034322;28;20091;-66
2022/01/25 13:04:25;;;;;;;6.00;1.27;;;21.60;99.90;;;;;;5033040;28;20041;-66
2022/01/25 13:06:53;;;;;;;9.75;0.90;;;21.60;99.90;;;;;;5035631;28;20044;-66
2022/01/25 13:09:28;;;;;;;4.70;1.02;;;21.60;99.90;;;;;;5034404;28;20040;-66
2022/01/25 13:12:27;;;;;;;6.80;1.25;;;21.60;99.90;;;;;;5033453;28;20109;-66
2022/01/25 13:15:14;;;;;;;4.50;0.80;;;21.60;99.90;;;;;;5032828;28;20044;-66
2022/01/25 13:17:36;;;;;;;7.85;1.33;;;21.60;99.90;;;;;;5035288;28;20025;-66
2022/01/25 13:20:04;;;;;;;4.00;0.60;;;21.60;99.90;;;;;;5027892;28;20029;-66
2022/01/25 13:22:40;;;;;;;4.65;1.30;;;21.60;99.90;;;;;;5033534;28;20092;-66
2022/01/25 13:25:25;;;;;;;10.50;1.73;;;21.60;99.90;;;;;;5033480;28;20029;-66
2022/01/25 13:27:57;;;;;;;5.10;0.98;;;21.60;99.90;;;;;;5035288;28;20018;-66
2022/01/25 13:30:45;;;;;;;4.32;0.98;;;21.60;99.90;;;;;;5032176;28;20029;-66
2022/01/25 13:33:13;;;;;;;3.90;0.57;;;21.60;99.90;;;;;;5034931;28;20017;-66
2022/01/25 13:35:48;;;;;;;5.50;0.80;;;21.60;99.90;;;;;;5032610;28;20034;-66
2022/01/25 13:38:21;;;;;;;5.45;0.80;;;21.60;99.90;;;;;;5035108;28;20017;-66
2022/01/25 13:46:38;;;;;;;5.32;1.38;;;21.60;99.90;;;;;;5015573;28;20751;-67
2022/01/25 13:49:13;;;;;;;6.47;1.15;;;21.60;99.90;;;;;;5026408;28;22344;-66
2022/01/25 13:51:42;;;;;;;8.27;1.60;;;21.60;99.90;;;;;;5035199;28;20029;-66
2022/01/25 13:54:14;;;;;;;5.65;0.80;;;21.50;99.90;;;;;;5033275;28;20037;-66
2022/01/25 13:56:42;;;;;;;4.35;0.85;;;21.60;99.90;;;;;;5033656;28;20088;-66
2022/01/25 13:59:10;;;;;;;6.22;1.20;;;21.60;99.90;;;;;;5032473;28;20029;-66
2022/01/25 14:01:40;;;;;;;6.13;0.90;;;21.60;99.90;;;;;;5034953;28;20034;-67
2022/01/25 14:04:21;;;;;;;7.22;1.45;;;21.60;99.90;;;;;;5033926;28;20377;-67
2022/01/25 14:06:55;;;;;;;6.55;1.55;;;21.60;99.90;;;;;;5034904;28;20018;-67
2022/01/25 14:09:29;;;;;;;6.38;1.17;;;21.60;99.90;;;;;;5032318;28;20025;-67
2022/01/25 14:23:23;;;;;;;7.32;1.08;;;21.60;99.90;;;;;;5016813;28;20036;-66
2022/01/25 14:26:03;;;;;;;5.72;1.10;;;21.60;99.90;;;;;;5017832;28;20022;-65
2022/01/25 14:28:33;;;;;;;4.10;1.05;;;21.60;99.90;;;;;;5014513;28;20024;-68
2022/01/25 14:31:04;;;;;;;8.50;1.33;;;21.60;99.90;;;;;;5030788;28;20025;-66
2022/01/25 14:33:33;;;;;;;7.72;1.00;;;21.50;99.90;;;;;;5032951;28;20128;-65
2022/01/25 14:36:09;;;;;;;5.55;0.80;;;21.50;99.90;;;;;;5032591;28;20096;-66
2022/01/25 14:38:39;;;;;;;6.20;1.20;;;21.50;99.90;;;;;;5032893;28;20031;-65
2022/01/25 14:41:09;;;;;;;5.90;1.35;;;21.50;99.90;;;;;;5030733;28;20682;-65
2022/01/25 14:44:02;;;;;;;10.25;1.25;;;21.50;99.90;;;;;;5033488;28;20025;-65
2022/01/25 14:46:47;;;;;;;4.90;0.77;;;21.50;99.90;;;;;;5013978;28;20108;-65
2022/01/25 14:49:17;;;;;;;6.15;0.70;;;21.50;99.90;;;;;;5016239;28;20048;-65
2022/01/25 14:51:48;;;;;;;8.75;0.98;;;21.50;99.90;;;;;;5034108;28;20109;-66
2022/01/25 14:54:18;;;;;;;5.72;1.00;;;21.40;99.90;;;;;;5031653;28;20021;-66
2022/01/25 14:56:50;;;;;;;9.43;1.60;;;21.50;99.90;;;;;;5033549;28;20020;-65